sensor_id;sensor_type;location;lat;lon;timestamp;P1;durP1;ratioP1;P2;durP2;ratioP2
54897;SDS011;40800;52.704;6.398;2024-01-10T00:01:17;23.03;;;20.50;;
54897;SDS011;40800;52.704;6.398;2024-01-10T00:03:43;23.23;;;19.83;;
54897;SDS011;40800;52.704;6.398;2024-01-10T00:06:12;25.40;;;20.97;;
54897;SDS011;40800;52.704;6.398;2024-01-10T00:08:38;23.35;;;19.80;;
54897;SDS011;40800;52.704;6.398;2024-01-10T00:11:03;25.80;;;20.80;;
54897;SDS011;40800;52.704;6.398;2024-01-10T00:13:31;25.83;;;20.30;;
54897;SDS011;40800;52.704;6.398;2024-01-10T00:15:58;24.00;;;21.08;;
54897;SDS011;40800;52.704;6.398;2024-01-10T00:18:24;26.07;;;20.57;;
54897;SDS011;40800;52.704;6.398;2024-01-10T00:20:51;23.85;;;20.50;;
54897;SDS011;40800;52.704;6.398;2024-01-10T00:23:18;27.88;;;22.15;;
54897;SDS011;40800;52.704;6.398;2024-01-10T00:25:45;24.08;;;20.73;;
54897;SDS011;40800;52.704;6.398;2024-01-10T00:28:11;22.95;;;20.45;;
54897;SDS011;40800;52.704;6.398;2024-01-10T00:30:37;26.03;;;20.37;;
54897;SDS011;40800;52.704;6.398;2024-01-10T00:33:03;23.30;;;20.75;;
54897;SDS011;40800;52.704;6.398;2024-01-10T00:35:28;24.97;;;20.80;;
54897;SDS011;40800;52.704;6.398;2024-01-10T00:37:54;23.40;;;20.90;;
54897;SDS011;40800;52.704;6.398;2024-01-10T00:40:20;23.30;;;20.67;;
54897;SDS011;40800;52.704;6.398;2024-01-10T00:42:45;25.07;;;21.20;;
54897;SDS011;40800;52.704;6.398;2024-01-10T00:45:11;24.63;;;20.73;;
54897;SDS011;40800;52.704;6.398;2024-01-10T00:47:36;24.07;;;20.93;;
54897;SDS011;40800;52.704;6.398;2024-01-10T00:50:02;23.00;;;20.27;;
54897;SDS011;40800;52.704;6.398;2024-01-10T00:52:27;23.13;;;20.53;;
54897;SDS011;40800;52.704;6.398;2024-01-10T00:54:53;25.13;;;21.00;;
54897;SDS011;40800;52.704;6.398;2024-01-10T00:57:18;25.07;;;21.23;;
54897;SDS011;40800;52.704;6.398;2024-01-10T00:59:44;25.33;;;21.40;;
54897;SDS011;40800;52.704;6.398;2024-01-10T01:02:09;24.73;;;20.85;;
54897;SDS011;40800;52.704;6.398;2024-01-10T01:04:35;23.23;;;19.57;;
54897;SDS011;40800;52.704;6.398;2024-01-10T01:07:01;27.10;;;21.80;;
54897;SDS011;40800;52.704;6.398;2024-01-10T01:09:26;24.13;;;20.77;;
54897;SDS011;40800;52.704;6.398;2024-01-10T01:11:52;24.03;;;20.40;;
54897;SDS011;40800;52.704;6.398;2024-01-10T01:14:17;25.97;;;21.17;;
54897;SDS011;40800;52.704;6.398;2024-01-10T01:16:43;25.17;;;21.03;;
54897;SDS011;40800;52.704;6.398;2024-01-10T01:19:08;22.40;;;19.97;;
54897;SDS011;40800;52.704;6.398;2024-01-10T01:21:34;23.60;;;19.80;;
54897;SDS011;40800;52.704;6.398;2024-01-10T01:23:59;25.33;;;19.70;;
54897;SDS011;40800;52.704;6.398;2024-01-10T01:26:25;23.03;;;19.77;;
54897;SDS011;40800;52.704;6.398;2024-01-10T01:28:51;23.93;;;20.07;;
54897;SDS011;40800;52.704;6.398;2024-01-10T01:31:16;22.40;;;19.93;;
54897;SDS011;40800;52.704;6.398;2024-01-10T01:33:42;21.92;;;18.95;;
54897;SDS011;40800;52.704;6.398;2024-01-10T01:36:08;21.77;;;19.27;;
54897;SDS011;40800;52.704;6.398;2024-01-10T01:38:33;22.83;;;19.40;;
54897;SDS011;40800;52.704;6.398;2024-01-10T01:41:00;24.23;;;20.13;;
54897;SDS011;40800;52.704;6.398;2024-01-10T01:43:25;23.10;;;18.90;;
54897;SDS011;40800;52.704;6.398;2024-01-10T01:45:53;24.47;;;19.73;;
54897;SDS011;40800;52.704;6.398;2024-01-10T01:48:19;22.38;;;19.30;;
54897;SDS011;40800;52.704;6.398;2024-01-10T01:50:46;21.40;;;19.10;;
54897;SDS011;40800;52.704;6.398;2024-01-10T01:53:14;23.35;;;19.83;;
54897;SDS011;40800;52.704;6.398;2024-01-10T01:55:40;26.00;;;20.77;;
54897;SDS011;40800;52.704;6.398;2024-01-10T01:58:10;24.10;;;20.25;;
54897;SDS011;40800;52.704;6.398;2024-01-10T02:00:37;28.02;;;20.05;;
54897;SDS011;40800;52.704;6.398;2024-01-10T02:03:08;25.10;;;20.95;;
54897;SDS011;40800;52.704;6.398;2024-01-10T02:05:35;23.60;;;19.85;;
54897;SDS011;40800;52.704;6.398;2024-01-10T02:08:01;23.98;;;20.67;;
54897;SDS011;40800;52.704;6.398;2024-01-10T02:10:27;25.43;;;20.77;;
54897;SDS011;40800;52.704;6.398;2024-01-10T02:12:52;26.23;;;20.77;;
54897;SDS011;40800;52.704;6.398;2024-01-10T02:15:18;25.00;;;20.60;;
54897;SDS011;40800;52.704;6.398;2024-01-10T02:17:44;25.47;;;20.83;;
54897;SDS011;40800;52.704;6.398;2024-01-10T02:22:36;25.42;;;20.23;;
54897;SDS011;40800;52.704;6.398;2024-01-10T02:25:03;23.40;;;20.47;;
54897;SDS011;40800;52.704;6.398;2024-01-10T02:27:33;22.45;;;20.02;;
54897;SDS011;40800;52.704;6.398;2024-01-10T02:32:26;22.67;;;20.05;;
54897;SDS011;40800;52.704;6.398;2024-01-10T02:34:52;23.73;;;21.13;;
54897;SDS011;40800;52.704;6.398;2024-01-10T02:37:17;23.83;;;20.83;;
54897;SDS011;40800;52.704;6.398;2024-01-10T02:39:43;22.07;;;19.13;;
54897;SDS011;40800;52.704;6.398;2024-01-10T02:42:08;22.13;;;19.30;;
54897;SDS011;40800;52.704;6.398;2024-01-10T02:44:34;22.63;;;20.13;;
54897;SDS011;40800;52.704;6.398;2024-01-10T02:47:00;24.50;;;20.87;;
54897;SDS011;40800;52.704;6.398;2024-01-10T02:49:25;23.30;;;20.53;;
54897;SDS011;40800;52.704;6.398;2024-01-10T02:51:51;22.27;;;19.87;;
54897;SDS011;40800;52.704;6.398;2024-01-10T02:54:16;25.43;;;20.23;;
54897;SDS011;40800;52.704;6.398;2024-01-10T02:56:42;24.67;;;20.23;;
54897;SDS011;40800;52.704;6.398;2024-01-10T02:59:07;24.43;;;20.03;;
54897;SDS011;40800;52.704;6.398;2024-01-10T03:01:33;21.80;;;18.23;;
54897;SDS011;40800;52.704;6.398;2024-01-10T03:03:58;21.40;;;19.03;;
54897;SDS011;40800;52.704;6.398;2024-01-10T03:06:24;23.00;;;19.47;;
54897;SDS011;40800;52.704;6.398;2024-01-10T03:08:50;21.52;;;18.98;;
54897;SDS011;40800;52.704;6.398;2024-01-10T03:11:16;23.13;;;19.10;;
54897;SDS011;40800;52.704;6.398;2024-01-10T03:13:43;20.90;;;17.90;;
54897;SDS011;40800;52.704;6.398;2024-01-10T03:16:10;21.85;;;18.98;;
54897;SDS011;40800;52.704;6.398;2024-01-10T03:18:36;22.07;;;19.17;;
54897;SDS011;40800;52.704;6.398;2024-01-10T03:21:02;21.93;;;18.13;;
54897;SDS011;40800;52.704;6.398;2024-01-10T03:23:27;24.27;;;18.50;;
54897;SDS011;40800;52.704;6.398;2024-01-10T03:25:53;21.63;;;18.37;;
54897;SDS011;40800;52.704;6.398;2024-01-10T03:28:18;20.43;;;17.83;;
54897;SDS011;40800;52.704;6.398;2024-01-10T03:30:44;21.83;;;18.67;;
54897;SDS011;40800;52.704;6.398;2024-01-10T03:33:10;20.47;;;18.27;;
54897;SDS011;40800;52.704;6.398;2024-01-10T03:35:36;21.00;;;18.60;;
54897;SDS011;40800;52.704;6.398;2024-01-10T03:38:02;21.27;;;18.07;;
54897;SDS011;40800;52.704;6.398;2024-01-10T03:40:27;22.03;;;18.93;;
54897;SDS011;40800;52.704;6.398;2024-01-10T03:42:53;21.70;;;18.33;;
54897;SDS011;40800;52.704;6.398;2024-01-10T03:45:18;22.20;;;19.13;;
54897;SDS011;40800;52.704;6.398;2024-01-10T03:47:47;20.38;;;17.92;;
54897;SDS011;40800;52.704;6.398;2024-01-10T03:50:18;22.20;;;18.73;;
54897;SDS011;40800;52.704;6.398;2024-01-10T03:52:44;23.08;;;18.73;;
54897;SDS011;40800;52.704;6.398;2024-01-10T03:55:14;25.30;;;18.73;;
54897;SDS011;40800;52.704;6.398;2024-01-10T03:57:40;23.00;;;19.40;;
54897;SDS011;40800;52.704;6.398;2024-01-10T04:00:07;20.70;;;18.20;;
54897;SDS011;40800;52.704;6.398;2024-01-10T04:02:33;21.55;;;18.67;;
54897;SDS011;40800;52.704;6.398;2024-01-10T04:05:00;24.70;;;19.35;;
54897;SDS011;40800;52.704;6.398;2024-01-10T04:07:26;23.00;;;19.30;;
54897;SDS011;40800;52.704;6.398;2024-01-10T04:12:17;26.30;;;18.83;;
54897;SDS011;40800;52.704;6.398;2024-01-10T04:14:43;26.00;;;19.20;;
54897;SDS011;40800;52.704;6.398;2024-01-10T04:17:09;21.07;;;18.77;;
54897;SDS011;40800;52.704;6.398;2024-01-10T04:19:34;22.07;;;19.20;;
54897;SDS011;40800;52.704;6.398;2024-01-10T04:22:00;21.93;;;18.93;;
54897;SDS011;40800;52.704;6.398;2024-01-10T04:24:25;23.50;;;20.07;;
54897;SDS011;40800;52.704;6.398;2024-01-10T04:26:51;22.83;;;19.03;;
54897;SDS011;40800;52.704;6.398;2024-01-10T04:29:17;22.10;;;19.10;;
54897;SDS011;40800;52.704;6.398;2024-01-10T04:31:42;22.23;;;19.63;;
54897;SDS011;40800;52.704;6.398;2024-01-10T04:34:08;20.73;;;18.53;;
54897;SDS011;40800;52.704;6.398;2024-01-10T04:36:33;22.10;;;19.00;;
54897;SDS011;40800;52.704;6.398;2024-01-10T04:38:59;23.97;;;19.00;;
54897;SDS011;40800;52.704;6.398;2024-01-10T04:41:25;21.57;;;19.00;;
54897;SDS011;40800;52.704;6.398;2024-01-10T04:43:51;20.70;;;18.33;;
54897;SDS011;40800;52.704;6.398;2024-01-10T04:46:17;21.20;;;18.40;;
54897;SDS011;40800;52.704;6.398;2024-01-10T04:48:42;21.77;;;18.17;;
54897;SDS011;40800;52.704;6.398;2024-01-10T04:51:08;21.37;;;18.03;;
54897;SDS011;40800;52.704;6.398;2024-01-10T04:53:34;23.70;;;19.00;;
54897;SDS011;40800;52.704;6.398;2024-01-10T04:55:59;21.93;;;18.77;;
54897;SDS011;40800;52.704;6.398;2024-01-10T04:58:25;22.57;;;19.00;;
54897;SDS011;40800;52.704;6.398;2024-01-10T05:00:51;20.00;;;17.80;;
54897;SDS011;40800;52.704;6.398;2024-01-10T05:03:17;20.55;;;18.23;;
54897;SDS011;40800;52.704;6.398;2024-01-10T05:05:42;22.67;;;18.93;;
54897;SDS011;40800;52.704;6.398;2024-01-10T05:08:08;20.97;;;18.20;;
54897;SDS011;40800;52.704;6.398;2024-01-10T05:10:34;21.20;;;18.03;;
54897;SDS011;40800;52.704;6.398;2024-01-10T05:12:59;20.40;;;18.20;;
54897;SDS011;40800;52.704;6.398;2024-01-10T05:15:25;21.17;;;18.07;;
54897;SDS011;40800;52.704;6.398;2024-01-10T05:17:50;21.40;;;17.53;;
54897;SDS011;40800;52.704;6.398;2024-01-10T05:20:16;18.97;;;16.40;;
54897;SDS011;40800;52.704;6.398;2024-01-10T05:22:42;19.23;;;17.23;;
54897;SDS011;40800;52.704;6.398;2024-01-10T05:25:08;20.98;;;17.17;;
54897;SDS011;40800;52.704;6.398;2024-01-10T05:27:33;19.03;;;16.23;;
54897;SDS011;40800;52.704;6.398;2024-01-10T05:29:59;18.97;;;16.63;;
54897;SDS011;40800;52.704;6.398;2024-01-10T05:32:25;17.43;;;15.50;;
54897;SDS011;40800;52.704;6.398;2024-01-10T05:37:17;18.92;;;16.25;;
54897;SDS011;40800;52.704;6.398;2024-01-10T05:39:43;20.27;;;17.60;;
54897;SDS011;40800;52.704;6.398;2024-01-10T05:42:08;20.63;;;17.53;;
54897;SDS011;40800;52.704;6.398;2024-01-10T05:44:34;20.43;;;17.47;;
54897;SDS011;40800;52.704;6.398;2024-01-10T05:47:00;20.80;;;18.10;;
54897;SDS011;40800;52.704;6.398;2024-01-10T05:49:26;22.10;;;18.43;;
54897;SDS011;40800;52.704;6.398;2024-01-10T05:51:51;24.27;;;18.97;;
54897;SDS011;40800;52.704;6.398;2024-01-10T05:54:17;21.27;;;18.37;;
54897;SDS011;40800;52.704;6.398;2024-01-10T05:56:45;20.35;;;18.05;;
54897;SDS011;40800;52.704;6.398;2024-01-10T05:59:11;32.30;;;19.87;;
54897;SDS011;40800;52.704;6.398;2024-01-10T06:01:37;28.37;;;19.53;;
54897;SDS011;40800;52.704;6.398;2024-01-10T06:04:05;25.30;;;19.73;;
54897;SDS011;40800;52.704;6.398;2024-01-10T06:06:31;28.37;;;19.57;;
54897;SDS011;40800;52.704;6.398;2024-01-10T06:08:57;24.67;;;19.80;;
54897;SDS011;40800;52.704;6.398;2024-01-10T06:11:23;23.83;;;20.30;;
54897;SDS011;40800;52.704;6.398;2024-01-10T06:13:48;22.95;;;19.67;;
54897;SDS011;40800;52.704;6.398;2024-01-10T06:16:14;24.47;;;19.83;;
54897;SDS011;40800;52.704;6.398;2024-01-10T06:18:40;23.77;;;19.93;;
54897;SDS011;40800;52.704;6.398;2024-01-10T06:21:05;29.73;;;21.07;;
54897;SDS011;40800;52.704;6.398;2024-01-10T06:23:31;24.10;;;20.93;;
54897;SDS011;40800;52.704;6.398;2024-01-10T06:25:56;24.87;;;20.73;;
54897;SDS011;40800;52.704;6.398;2024-01-10T06:28:22;26.40;;;21.47;;
54897;SDS011;40800;52.704;6.398;2024-01-10T06:30:48;24.43;;;21.53;;
54897;SDS011;40800;52.704;6.398;2024-01-10T06:33:14;27.43;;;21.60;;
54897;SDS011;40800;52.704;6.398;2024-01-10T06:35:40;26.10;;;21.20;;
54897;SDS011;40800;52.704;6.398;2024-01-10T06:38:08;26.17;;;20.90;;
54897;SDS011;40800;52.704;6.398;2024-01-10T06:40:34;24.33;;;20.70;;
54897;SDS011;40800;52.704;6.398;2024-01-10T06:43:00;23.67;;;20.83;;
54897;SDS011;40800;52.704;6.398;2024-01-10T06:45:26;26.87;;;21.50;;
54897;SDS011;40800;52.704;6.398;2024-01-10T06:47:51;25.40;;;21.50;;
54897;SDS011;40800;52.704;6.398;2024-01-10T06:50:17;24.83;;;21.67;;
54897;SDS011;40800;52.704;6.398;2024-01-10T06:52:44;26.08;;;21.30;;
54897;SDS011;40800;52.704;6.398;2024-01-10T06:55:10;25.10;;;20.70;;
54897;SDS011;40800;52.704;6.398;2024-01-10T06:57:36;24.97;;;21.77;;
54897;SDS011;40800;52.704;6.398;2024-01-10T07:00:01;27.63;;;22.40;;
54897;SDS011;40800;52.704;6.398;2024-01-10T07:02:31;26.63;;;22.35;;
54897;SDS011;40800;52.704;6.398;2024-01-10T07:04:57;25.83;;;21.70;;
54897;SDS011;40800;52.704;6.398;2024-01-10T07:07:23;28.40;;;22.80;;
54897;SDS011;40800;52.704;6.398;2024-01-10T07:09:48;27.37;;;22.33;;
54897;SDS011;40800;52.704;6.398;2024-01-10T07:12:14;25.63;;;22.00;;
54897;SDS011;40800;52.704;6.398;2024-01-10T07:14:39;24.67;;;21.43;;
54897;SDS011;40800;52.704;6.398;2024-01-10T07:17:06;24.40;;;21.60;;
54897;SDS011;40800;52.704;6.398;2024-01-10T07:19:32;26.45;;;21.23;;
54897;SDS011;40800;52.704;6.398;2024-01-10T07:21:57;24.87;;;21.60;;
54897;SDS011;40800;52.704;6.398;2024-01-10T07:24:23;27.03;;;22.20;;
54897;SDS011;40800;52.704;6.398;2024-01-10T07:26:48;26.17;;;21.30;;
54897;SDS011;40800;52.704;6.398;2024-01-10T07:29:14;28.27;;;21.40;;
54897;SDS011;40800;52.704;6.398;2024-01-10T07:31:40;29.97;;;21.63;;
54897;SDS011;40800;52.704;6.398;2024-01-10T07:34:05;29.30;;;22.07;;
54897;SDS011;40800;52.704;6.398;2024-01-10T07:36:32;29.70;;;22.50;;
54897;SDS011;40800;52.704;6.398;2024-01-10T07:39:00;26.33;;;21.10;;
54897;SDS011;40800;52.704;6.398;2024-01-10T07:41:26;27.13;;;22.17;;
54897;SDS011;40800;52.704;6.398;2024-01-10T07:43:51;34.13;;;22.70;;
54897;SDS011;40800;52.704;6.398;2024-01-10T07:46:17;35.87;;;22.30;;
54897;SDS011;40800;52.704;6.398;2024-01-10T07:48:43;28.73;;;23.00;;
54897;SDS011;40800;52.704;6.398;2024-01-10T07:51:08;37.17;;;30.70;;
54897;SDS011;40800;52.704;6.398;2024-01-10T07:53:34;27.87;;;22.43;;
54897;SDS011;40800;52.704;6.398;2024-01-10T07:56:01;26.77;;;21.67;;
54897;SDS011;40800;52.704;6.398;2024-01-10T07:58:26;28.00;;;22.47;;
54897;SDS011;40800;52.704;6.398;2024-01-10T08:00:52;27.03;;;22.10;;
54897;SDS011;40800;52.704;6.398;2024-01-10T08:03:19;27.55;;;21.20;;
54897;SDS011;40800;52.704;6.398;2024-01-10T08:05:44;23.93;;;20.80;;
54897;SDS011;40800;52.704;6.398;2024-01-10T08:08:11;26.05;;;20.83;;
54897;SDS011;40800;52.704;6.398;2024-01-10T08:13:05;23.70;;;20.75;;
54897;SDS011;40800;52.704;6.398;2024-01-10T08:15:30;24.27;;;19.40;;
54897;SDS011;40800;52.704;6.398;2024-01-10T08:17:59;22.90;;;20.40;;
54897;SDS011;40800;52.704;6.398;2024-01-10T08:20:28;24.38;;;20.30;;
54897;SDS011;40800;52.704;6.398;2024-01-10T08:22:53;23.70;;;19.70;;
54897;SDS011;40800;52.704;6.398;2024-01-10T08:25:19;24.42;;;19.98;;
54897;SDS011;40800;52.704;6.398;2024-01-10T08:27:44;26.17;;;20.73;;
54897;SDS011;40800;52.704;6.398;2024-01-10T08:30:10;24.30;;;20.17;;
54897;SDS011;40800;52.704;6.398;2024-01-10T08:32:36;23.03;;;20.47;;
54897;SDS011;40800;52.704;6.398;2024-01-10T08:35:02;25.13;;;20.67;;
54897;SDS011;40800;52.704;6.398;2024-01-10T08:37:30;23.92;;;19.60;;
54897;SDS011;40800;52.704;6.398;2024-01-10T08:39:56;23.73;;;19.07;;
54897;SDS011;40800;52.704;6.398;2024-01-10T08:42:22;22.85;;;19.45;;
54897;SDS011;40800;52.704;6.398;2024-01-10T08:44:47;22.50;;;18.67;;
54897;SDS011;40800;52.704;6.398;2024-01-10T08:49:40;21.90;;;18.40;;
54897;SDS011;40800;52.704;6.398;2024-01-10T08:52:05;22.40;;;19.87;;
54897;SDS011;40800;52.704;6.398;2024-01-10T08:54:31;23.80;;;19.70;;
54897;SDS011;40800;52.704;6.398;2024-01-10T08:56:56;20.73;;;18.53;;
54897;SDS011;40800;52.704;6.398;2024-01-10T08:59:23;19.92;;;17.80;;
54897;SDS011;40800;52.704;6.398;2024-01-10T09:01:49;22.80;;;18.47;;
54897;SDS011;40800;52.704;6.398;2024-01-10T09:04:14;22.03;;;18.47;;
54897;SDS011;40800;52.704;6.398;2024-01-10T09:06:40;21.97;;;18.70;;
54897;SDS011;40800;52.704;6.398;2024-01-10T09:09:06;21.02;;;17.75;;
54897;SDS011;40800;52.704;6.398;2024-01-10T09:11:31;19.67;;;17.42;;
54897;SDS011;40800;52.704;6.398;2024-01-10T09:13:58;19.73;;;17.63;;
54897;SDS011;40800;52.704;6.398;2024-01-10T09:16:24;20.15;;;17.05;;
54897;SDS011;40800;52.704;6.398;2024-01-10T09:18:49;20.35;;;17.33;;
54897;SDS011;40800;52.704;6.398;2024-01-10T09:21:19;20.10;;;17.58;;
54897;SDS011;40800;52.704;6.398;2024-01-10T09:26:12;22.85;;;17.00;;
54897;SDS011;40800;52.704;6.398;2024-01-10T09:28:38;17.90;;;15.57;;
54897;SDS011;40800;52.704;6.398;2024-01-10T09:33:32;17.73;;;15.32;;
54897;SDS011;40800;52.704;6.398;2024-01-10T09:35:59;17.80;;;15.15;;
54897;SDS011;40800;52.704;6.398;2024-01-10T09:38:24;17.57;;;14.73;;
54897;SDS011;40800;52.704;6.398;2024-01-10T09:40:50;18.70;;;14.30;;
54897;SDS011;40800;52.704;6.398;2024-01-10T09:43:20;20.00;;;14.60;;
54897;SDS011;40800;52.704;6.398;2024-01-10T09:45:46;17.60;;;14.38;;
54897;SDS011;40800;52.704;6.398;2024-01-10T09:48:14;19.65;;;14.70;;
54897;SDS011;40800;52.704;6.398;2024-01-10T09:50:40;20.47;;;14.30;;
54897;SDS011;40800;52.704;6.398;2024-01-10T09:53:07;17.63;;;13.82;;
54897;SDS011;40800;52.704;6.398;2024-01-10T09:55:35;15.63;;;13.40;;
54897;SDS011;40800;52.704;6.398;2024-01-10T09:58:04;14.48;;;12.90;;
54897;SDS011;40800;52.704;6.398;2024-01-10T10:00:30;16.25;;;12.85;;
54897;SDS011;40800;52.704;6.398;2024-01-10T10:02:58;19.08;;;12.85;;
54897;SDS011;40800;52.704;6.398;2024-01-10T10:05:25;16.13;;;12.52;;
54897;SDS011;40800;52.704;6.398;2024-01-10T10:07:52;16.60;;;12.60;;
54897;SDS011;40800;52.704;6.398;2024-01-10T10:10:21;14.27;;;12.52;;
54897;SDS011;40800;52.704;6.398;2024-01-10T10:15:19;15.85;;;12.98;;
54897;SDS011;40800;52.704;6.398;2024-01-10T10:17:47;13.65;;;11.73;;
54897;SDS011;40800;52.704;6.398;2024-01-10T10:22:39;14.70;;;12.18;;
54897;SDS011;40800;52.704;6.398;2024-01-10T10:25:05;14.63;;;11.40;;
54897;SDS011;40800;52.704;6.398;2024-01-10T10:27:31;14.00;;;11.55;;
54897;SDS011;40800;52.704;6.398;2024-01-10T10:29:57;13.63;;;11.83;;
54897;SDS011;40800;52.704;6.398;2024-01-10T10:32:22;13.80;;;11.82;;
54897;SDS011;40800;52.704;6.398;2024-01-10T10:34:48;18.33;;;12.18;;
54897;SDS011;40800;52.704;6.398;2024-01-10T10:37:13;15.90;;;12.32;;
54897;SDS011;40800;52.704;6.398;2024-01-10T10:39:39;14.13;;;11.98;;
54897;SDS011;40800;52.704;6.398;2024-01-10T10:42:06;15.73;;;11.88;;
54897;SDS011;40800;52.704;6.398;2024-01-10T10:44:32;14.30;;;11.60;;
54897;SDS011;40800;52.704;6.398;2024-01-10T10:47:04;13.00;;;11.10;;
54897;SDS011;40800;52.704;6.398;2024-01-10T10:49:34;13.90;;;11.55;;
54897;SDS011;40800;52.704;6.398;2024-01-10T10:52:00;13.25;;;10.77;;
54897;SDS011;40800;52.704;6.398;2024-01-10T10:54:28;15.63;;;12.52;;
54897;SDS011;40800;52.704;6.398;2024-01-10T10:56:57;14.10;;;11.93;;
54897;SDS011;40800;52.704;6.398;2024-01-10T10:59:26;15.77;;;12.15;;
54897;SDS011;40800;52.704;6.398;2024-01-10T11:01:54;14.65;;;11.85;;
54897;SDS011;40800;52.704;6.398;2024-01-10T11:04:21;14.10;;;11.48;;
54897;SDS011;40800;52.704;6.398;2024-01-10T11:06:47;15.88;;;11.77;;
54897;SDS011;40800;52.704;6.398;2024-01-10T11:09:12;14.38;;;11.70;;
54897;SDS011;40800;52.704;6.398;2024-01-10T11:14:47;13.73;;;10.68;;
54897;SDS011;40800;52.704;6.398;2024-01-10T11:17:56;12.15;;;10.32;;
54897;SDS011;40800;52.704;6.398;2024-01-10T11:20:53;12.82;;;10.35;;
54897;SDS011;40800;52.704;6.398;2024-01-10T11:23:48;12.48;;;9.98;;
54897;SDS011;40800;52.704;6.398;2024-01-10T11:26:16;11.93;;;9.57;;
54897;SDS011;40800;52.704;6.398;2024-01-10T11:28:42;13.40;;;9.88;;
54897;SDS011;40800;52.704;6.398;2024-01-10T11:31:07;12.88;;;9.38;;
54897;SDS011;40800;52.704;6.398;2024-01-10T11:33:35;12.75;;;10.02;;
54897;SDS011;40800;52.704;6.398;2024-01-10T11:38:43;11.52;;;9.38;;
54897;SDS011;40800;52.704;6.398;2024-01-10T11:41:22;11.13;;;8.90;;
54897;SDS011;40800;52.704;6.398;2024-01-10T11:46:38;14.18;;;9.70;;
54897;SDS011;40800;52.704;6.398;2024-01-10T11:49:08;16.38;;;9.63;;
54897;SDS011;40800;52.704;6.398;2024-01-10T11:51:42;13.35;;;10.13;;
54897;SDS011;40800;52.704;6.398;2024-01-10T11:54:11;13.48;;;9.82;;
54897;SDS011;40800;52.704;6.398;2024-01-10T11:56:38;14.23;;;10.03;;
54897;SDS011;40800;52.704;6.398;2024-01-10T11:59:11;12.32;;;9.68;;
54897;SDS011;40800;52.704;6.398;2024-01-10T12:01:41;13.40;;;9.57;;
54897;SDS011;40800;52.704;6.398;2024-01-10T12:04:07;12.18;;;9.65;;
54897;SDS011;40800;52.704;6.398;2024-01-10T12:06:34;13.30;;;9.88;;
54897;SDS011;40800;52.704;6.398;2024-01-10T12:09:04;13.15;;;9.95;;
54897;SDS011;40800;52.704;6.398;2024-01-10T12:11:36;13.80;;;9.65;;
54897;SDS011;40800;52.704;6.398;2024-01-10T12:14:04;11.60;;;9.02;;
54897;SDS011;40800;52.704;6.398;2024-01-10T12:16:32;10.88;;;9.02;;
54897;SDS011;40800;52.704;6.398;2024-01-10T12:18:57;12.07;;;9.35;;
54897;SDS011;40800;52.704;6.398;2024-01-10T12:21:23;10.73;;;8.57;;
54897;SDS011;40800;52.704;6.398;2024-01-10T12:23:49;12.70;;;9.45;;
54897;SDS011;40800;52.704;6.398;2024-01-10T12:26:16;11.05;;;7.93;;
54897;SDS011;40800;52.704;6.398;2024-01-10T12:28:52;10.65;;;8.30;;
54897;SDS011;40800;52.704;6.398;2024-01-10T12:31:22;11.95;;;8.63;;
54897;SDS011;40800;52.704;6.398;2024-01-10T12:33:50;12.15;;;8.43;;
54897;SDS011;40800;52.704;6.398;2024-01-10T12:36:16;11.93;;;8.57;;
54897;SDS011;40800;52.704;6.398;2024-01-10T12:38:43;12.70;;;8.38;;
54897;SDS011;40800;52.704;6.398;2024-01-10T12:41:12;11.15;;;8.40;;
54897;SDS011;40800;52.704;6.398;2024-01-10T12:43:40;10.98;;;8.10;;
54897;SDS011;40800;52.704;6.398;2024-01-10T12:46:06;9.95;;;7.80;;
54897;SDS011;40800;52.704;6.398;2024-01-10T12:48:32;9.98;;;7.65;;
54897;SDS011;40800;52.704;6.398;2024-01-10T12:51:01;10.98;;;8.07;;
54897;SDS011;40800;52.704;6.398;2024-01-10T12:53:30;11.30;;;7.90;;
54897;SDS011;40800;52.704;6.398;2024-01-10T12:55:58;12.02;;;8.55;;
54897;SDS011;40800;52.704;6.398;2024-01-10T12:58:24;11.90;;;8.50;;
54897;SDS011;40800;52.704;6.398;2024-01-10T13:00:50;9.93;;;7.65;;
54897;SDS011;40800;52.704;6.398;2024-01-10T13:03:15;11.18;;;7.82;;
54897;SDS011;40800;52.704;6.398;2024-01-10T13:05:42;10.73;;;7.85;;
54897;SDS011;40800;52.704;6.398;2024-01-10T13:08:09;11.13;;;7.78;;
54897;SDS011;40800;52.704;6.398;2024-01-10T13:10:36;12.68;;;9.63;;
54897;SDS011;40800;52.704;6.398;2024-01-10T13:13:02;12.07;;;8.63;;
54897;SDS011;40800;52.704;6.398;2024-01-10T13:15:28;12.65;;;8.25;;
54897;SDS011;40800;52.704;6.398;2024-01-10T13:17:54;10.65;;;8.23;;
54897;SDS011;40800;52.704;6.398;2024-01-10T13:20:20;12.73;;;8.70;;
54897;SDS011;40800;52.704;6.398;2024-01-10T13:22:46;11.43;;;8.77;;
54897;SDS011;40800;52.704;6.398;2024-01-10T13:25:11;11.65;;;8.57;;
54897;SDS011;40800;52.704;6.398;2024-01-10T13:27:38;11.70;;;8.93;;
54897;SDS011;40800;52.704;6.398;2024-01-10T13:30:03;11.65;;;8.55;;
54897;SDS011;40800;52.704;6.398;2024-01-10T13:34:56;11.48;;;8.38;;
54897;SDS011;40800;52.704;6.398;2024-01-10T13:37:22;12.27;;;8.63;;
54897;SDS011;40800;52.704;6.398;2024-01-10T13:39:48;11.40;;;8.18;;
54897;SDS011;40800;52.704;6.398;2024-01-10T13:42:13;11.52;;;8.63;;
54897;SDS011;40800;52.704;6.398;2024-01-10T13:44:39;11.80;;;8.80;;
54897;SDS011;40800;52.704;6.398;2024-01-10T13:47:06;11.97;;;9.00;;
54897;SDS011;40800;52.704;6.398;2024-01-10T13:49:31;11.40;;;8.85;;
54897;SDS011;40800;52.704;6.398;2024-01-10T13:51:57;13.68;;;9.00;;
54897;SDS011;40800;52.704;6.398;2024-01-10T13:54:22;12.30;;;8.90;;
54897;SDS011;40800;52.704;6.398;2024-01-10T13:56:48;11.90;;;7.88;;
54897;SDS011;40800;52.704;6.398;2024-01-10T13:59:13;11.85;;;8.52;;
54897;SDS011;40800;52.704;6.398;2024-01-10T14:01:39;11.57;;;8.77;;
54897;SDS011;40800;52.704;6.398;2024-01-10T14:04:05;10.88;;;8.10;;
54897;SDS011;40800;52.704;6.398;2024-01-10T14:06:31;11.43;;;7.82;;
54897;SDS011;40800;52.704;6.398;2024-01-10T14:08:56;10.88;;;7.63;;
54897;SDS011;40800;52.704;6.398;2024-01-10T14:11:23;9.90;;;7.55;;
54897;SDS011;40800;52.704;6.398;2024-01-10T14:13:49;11.18;;;8.70;;
54897;SDS011;40800;52.704;6.398;2024-01-10T14:16:15;11.55;;;7.75;;
54897;SDS011;40800;52.704;6.398;2024-01-10T14:18:40;10.70;;;8.18;;
54897;SDS011;40800;52.704;6.398;2024-01-10T14:21:06;12.10;;;8.35;;
54897;SDS011;40800;52.704;6.398;2024-01-10T14:23:32;11.00;;;7.90;;
54897;SDS011;40800;52.704;6.398;2024-01-10T14:25:58;12.05;;;8.52;;
54897;SDS011;40800;52.704;6.398;2024-01-10T14:28:24;11.57;;;7.85;;
54897;SDS011;40800;52.704;6.398;2024-01-10T14:30:50;10.30;;;7.53;;
54897;SDS011;40800;52.704;6.398;2024-01-10T14:33:16;10.48;;;7.75;;
54897;SDS011;40800;52.704;6.398;2024-01-10T14:35:41;10.88;;;7.93;;
54897;SDS011;40800;52.704;6.398;2024-01-10T14:38:07;10.82;;;7.63;;
54897;SDS011;40800;52.704;6.398;2024-01-10T14:40:33;10.27;;;8.07;;
54897;SDS011;40800;52.704;6.398;2024-01-10T14:42:59;9.60;;;7.75;;
54897;SDS011;40800;52.704;6.398;2024-01-10T14:45:24;11.25;;;7.63;;
54897;SDS011;40800;52.704;6.398;2024-01-10T14:47:50;10.30;;;8.07;;
54897;SDS011;40800;52.704;6.398;2024-01-10T14:50:16;11.38;;;7.88;;
54897;SDS011;40800;52.704;6.398;2024-01-10T14:52:42;11.10;;;7.78;;
54897;SDS011;40800;52.704;6.398;2024-01-10T14:55:07;11.15;;;7.93;;
54897;SDS011;40800;52.704;6.398;2024-01-10T14:57:33;9.63;;;7.60;;